Perryville, AR (72126)

3:06 AM CST on February 12, 2016 (GMT -0600)
Petit Jean Mountain | | Change Station
CLOSE
Current Station
Personal Weather Station
Location: Morrilton, AR
Elevation: 1060 ft
Nearby Weather Stations

Elev 1060 ft 35.15 °N, 92.94 °W | Updated 5 minutes ago

Clear
Clear
30.2 °F
Feels Like 30 °F
N
0.0
Wind Variable Wind from SSW

Today
High -- | Low -- °F
--% Chance of Precip.
Yesterday
High -- | Low -- °F
Precip. -- in
Pressure 30.20 in
Visibility 10.0 miles
Clouds Clear
Windchill 30 °F
Dew Point 24 °F
Humidity 79%
Rainfall 0.00 in
Snow Depth Not available.
7:00 AM 5:50 PM
Waxing Crescent, 19% visible
METAR KRUE 120853Z AUTO 00000KT 10SM CLR M02/M04 A3021 RMK AO2 SLP227 T10171044 53001 TSNO
Pressure 30.20 in
Visibility 10.0 miles
Clouds Clear
Windchill 30 °F
Dew Point 24 °F
Humidity 79%
Rainfall 0.00 in
Snow Depth Not available.
7:00 AM 5:50 PM
Waxing Crescent, 19% visible
METAR KRUE 120853Z AUTO 00000KT 10SM CLR M02/M04 A3021 RMK AO2 SLP227 T10171044 53001 TSNO

10-Day Weather Forecast

Almanac

Astronomy

Feb. 12, 2016 Rise Set
Actual Time
Civil Twilight
Nautical Twilight
Astronomical Twilight
Moon
Length of Visible Light
Length of Day
Tomorrow will be .
, % of the Moon is Illuminated

Today's Extremes

State Highs State Lows

Community

WunderPhotos

Upload Photos

1,892,286 photos uploaded!

WunderBlog® & News

Nearby

Air Quality

  Air Quality AQ Index Pollutant
Not available.

Snow Depth

Station Depth Elevation

Earthquake Activity

City Distance Mag. Time & Date
Minimum magnitude displayed is 2.5.

Coastal Water Temperatures

Place Temperature

Stations

Nearby Weather Stations

Station Location Temp. Windchill Dew Point Humidity Wind Precip. Elev Updated Type
                   

Watches & Warnings

There are currently no watches in effect.